sensor_id;sensor_type;location;lat;lon;timestamp;pressure;altitude;pressure_sealevel;temperature
68127;BMP180;54931;52.098;21.006;2023-08-06T00:01:37;99157.40;;;18.70
68127;BMP180;54931;52.098;21.006;2023-08-06T00:04:04;99154.80;;;18.70
68127;BMP180;54931;52.098;21.006;2023-08-06T00:06:32;99147.80;;;18.70
68127;BMP180;54931;52.098;21.006;2023-08-06T00:09:00;99154.40;;;18.70
68127;BMP180;54931;52.098;21.006;2023-08-06T00:11:28;99170.00;;;18.70
68127;BMP180;54931;52.098;21.006;2023-08-06T00:13:55;99176.20;;;18.60
68127;BMP180;54931;52.098;21.006;2023-08-06T00:16:23;99163.60;;;18.60
68127;BMP180;54931;52.098;21.006;2023-08-06T00:18:50;99156.40;;;18.60
68127;BMP180;54931;52.098;21.006;2023-08-06T00:21:18;99156.40;;;18.60
68127;BMP180;54931;52.098;21.006;2023-08-06T00:23:46;99164.60;;;18.60
68127;BMP180;54931;52.098;21.006;2023-08-06T00:26:13;99160.80;;;18.60
68127;BMP180;54931;52.098;21.006;2023-08-06T00:28:41;99155.60;;;18.52
68127;BMP180;54931;52.098;21.006;2023-08-06T00:31:09;99147.80;;;18.50
68127;BMP180;54931;52.098;21.006;2023-08-06T00:33:36;99142.20;;;18.50
68127;BMP180;54931;52.098;21.006;2023-08-06T00:36:04;99134.00;;;18.50
68127;BMP180;54931;52.098;21.006;2023-08-06T00:38:31;99132.00;;;18.50
68127;BMP180;54931;52.098;21.006;2023-08-06T00:40:59;99132.00;;;18.50
68127;BMP180;54931;52.098;21.006;2023-08-06T00:43:26;99124.20;;;18.50
68127;BMP180;54931;52.098;21.006;2023-08-06T00:45:55;99123.80;;;18.50
68127;BMP180;54931;52.098;21.006;2023-08-06T00:48:23;99112.20;;;18.50
68127;BMP180;54931;52.098;21.006;2023-08-06T00:50:50;99099.80;;;18.50
68127;BMP180;54931;52.098;21.006;2023-08-06T00:53:18;99095.80;;;18.50
68127;BMP180;54931;52.098;21.006;2023-08-06T00:55:46;99086.00;;;18.50
68127;BMP180;54931;52.098;21.006;2023-08-06T00:58:15;99084.00;;;18.50
68127;BMP180;54931;52.098;21.006;2023-08-06T01:00:43;99074.20;;;18.50
68127;BMP180;54931;52.098;21.006;2023-08-06T01:03:10;99069.20;;;18.44
68127;BMP180;54931;52.098;21.006;2023-08-06T01:05:38;99068.80;;;18.40
68127;BMP180;54931;52.098;21.006;2023-08-06T01:11:40;99040.60;;;18.40
68127;BMP180;54931;52.098;21.006;2023-08-06T01:14:19;99033.80;;;18.40
68127;BMP180;54931;52.098;21.006;2023-08-06T01:16:51;99027.20;;;18.40
68127;BMP180;54931;52.098;21.006;2023-08-06T01:19:19;99009.00;;;18.38
68127;BMP180;54931;52.098;21.006;2023-08-06T01:21:47;98994.60;;;18.36
68127;BMP180;54931;52.098;21.006;2023-08-06T01:24:15;98984.20;;;18.34
68127;BMP180;54931;52.098;21.006;2023-08-06T01:27:14;98971.60;;;18.32
68127;BMP180;54931;52.098;21.006;2023-08-06T01:29:56;98958.60;;;18.30
68127;BMP180;54931;52.098;21.006;2023-08-06T01:32:26;98948.40;;;18.30
68127;BMP180;54931;52.098;21.006;2023-08-06T01:34:56;98945.00;;;18.30
68127;BMP180;54931;52.098;21.006;2023-08-06T01:37:25;98933.80;;;18.30
68127;BMP180;54931;52.098;21.006;2023-08-06T01:39:52;98924.80;;;18.30
68127;BMP180;54931;52.098;21.006;2023-08-06T01:42:20;98922.40;;;18.30
68127;BMP180;54931;52.098;21.006;2023-08-06T01:44:48;98911.40;;;18.32
68127;BMP180;54931;52.098;21.006;2023-08-06T01:47:15;98908.40;;;18.34
68127;BMP180;54931;52.098;21.006;2023-08-06T01:49:43;98905.20;;;18.32
68127;BMP180;54931;52.098;21.006;2023-08-06T01:52:10;98910.00;;;18.36
68127;BMP180;54931;52.098;21.006;2023-08-06T01:54:38;98916.20;;;18.40
68127;BMP180;54931;52.098;21.006;2023-08-06T01:57:06;98915.60;;;18.38
68127;BMP180;54931;52.098;21.006;2023-08-06T01:59:33;98912.20;;;18.38
68127;BMP180;54931;52.098;21.006;2023-08-06T02:02:01;98907.40;;;18.36
68127;BMP180;54931;52.098;21.006;2023-08-06T02:04:28;98904.40;;;18.40
68127;BMP180;54931;52.098;21.006;2023-08-06T02:06:56;98897.80;;;18.38
68127;BMP180;54931;52.098;21.006;2023-08-06T02:09:23;98902.20;;;18.38
68127;BMP180;54931;52.098;21.006;2023-08-06T02:11:51;98897.00;;;18.36
68127;BMP180;54931;52.098;21.006;2023-08-06T02:14:18;98892.20;;;18.34
68127;BMP180;54931;52.098;21.006;2023-08-06T02:16:46;98880.20;;;18.30
68127;BMP180;54931;52.098;21.006;2023-08-06T02:19:13;98874.80;;;18.34
68127;BMP180;54931;52.098;21.006;2023-08-06T02:21:40;98877.20;;;18.32
68127;BMP180;54931;52.098;21.006;2023-08-06T02:24:08;98872.60;;;18.36
68127;BMP180;54931;52.098;21.006;2023-08-06T02:26:36;98875.60;;;18.34
68127;BMP180;54931;52.098;21.006;2023-08-06T02:29:03;98879.00;;;18.40
68127;BMP180;54931;52.098;21.006;2023-08-06T02:31:30;98890.00;;;18.40
68127;BMP180;54931;52.098;21.006;2023-08-06T02:33:58;98887.20;;;18.40
68127;BMP180;54931;52.098;21.006;2023-08-06T02:36:26;98883.20;;;18.40
68127;BMP180;54931;52.098;21.006;2023-08-06T02:38:56;98877.00;;;18.40
68127;BMP180;54931;52.098;21.006;2023-08-06T02:41:23;98874.00;;;18.40
68127;BMP180;54931;52.098;21.006;2023-08-06T02:43:53;98872.60;;;18.40
68127;BMP180;54931;52.098;21.006;2023-08-06T02:46:20;98866.00;;;18.40
68127;BMP180;54931;52.098;21.006;2023-08-06T02:48:47;98860.20;;;18.40
68127;BMP180;54931;52.098;21.006;2023-08-06T02:51:15;98855.80;;;18.40
68127;BMP180;54931;52.098;21.006;2023-08-06T02:53:43;98845.20;;;18.40
68127;BMP180;54931;52.098;21.006;2023-08-06T02:56:10;98843.20;;;18.40
68127;BMP180;54931;52.098;21.006;2023-08-06T02:58:38;98841.00;;;18.40
68127;BMP180;54931;52.098;21.006;2023-08-06T03:01:06;98832.80;;;18.40
68127;BMP180;54931;52.098;21.006;2023-08-06T03:03:34;98823.40;;;18.40
68127;BMP180;54931;52.098;21.006;2023-08-06T03:06:02;98823.20;;;18.40
68127;BMP180;54931;52.098;21.006;2023-08-06T03:08:30;98815.20;;;18.48
68127;BMP180;54931;52.098;21.006;2023-08-06T03:10:58;98811.00;;;18.50
68127;BMP180;54931;52.098;21.006;2023-08-06T03:13:26;98802.20;;;18.50
68127;BMP180;54931;52.098;21.006;2023-08-06T03:15:57;98795.60;;;18.50
68127;BMP180;54931;52.098;21.006;2023-08-06T03:18:25;98793.20;;;18.50
68127;BMP180;54931;52.098;21.006;2023-08-06T03:20:53;98783.80;;;18.50
68127;BMP180;54931;52.098;21.006;2023-08-06T03:23:21;98781.60;;;18.50
68127;BMP180;54931;52.098;21.006;2023-08-06T03:25:48;98777.40;;;18.50
68127;BMP180;54931;52.098;21.006;2023-08-06T03:28:16;98774.20;;;18.50
68127;BMP180;54931;52.098;21.006;2023-08-06T03:30:43;98770.80;;;18.50
68127;BMP180;54931;52.098;21.006;2023-08-06T03:33:11;98762.20;;;18.58
68127;BMP180;54931;52.098;21.006;2023-08-06T03:35:39;98753.40;;;18.60
68127;BMP180;54931;52.098;21.006;2023-08-06T03:38:07;98746.20;;;18.60
68127;BMP180;54931;52.098;21.006;2023-08-06T03:40:35;98740.40;;;18.60
68127;BMP180;54931;52.098;21.006;2023-08-06T03:43:03;98735.00;;;18.60
68127;BMP180;54931;52.098;21.006;2023-08-06T03:45:31;98730.80;;;18.60
68127;BMP180;54931;52.098;21.006;2023-08-06T03:47:59;98727.60;;;18.64
68127;BMP180;54931;52.098;21.006;2023-08-06T03:50:27;98722.80;;;18.70
68127;BMP180;54931;52.098;21.006;2023-08-06T03:52:54;98718.40;;;18.70
68127;BMP180;54931;52.098;21.006;2023-08-06T03:55:22;98709.80;;;18.70
68127;BMP180;54931;52.098;21.006;2023-08-06T03:57:49;98704.00;;;18.70
68127;BMP180;54931;52.098;21.006;2023-08-06T04:00:17;98700.60;;;18.70
68127;BMP180;54931;52.098;21.006;2023-08-06T04:02:45;98694.40;;;18.76
68127;BMP180;54931;52.098;21.006;2023-08-06T04:05:14;98691.20;;;18.80
68127;BMP180;54931;52.098;21.006;2023-08-06T04:07:42;98683.60;;;18.80
68127;BMP180;54931;52.098;21.006;2023-08-06T04:10:09;98675.00;;;18.80
68127;BMP180;54931;52.098;21.006;2023-08-06T04:12:37;98670.00;;;18.84
68127;BMP180;54931;52.098;21.006;2023-08-06T04:15:07;98671.80;;;18.90
68127;BMP180;54931;52.098;21.006;2023-08-06T04:17:34;98676.20;;;18.90
68127;BMP180;54931;52.098;21.006;2023-08-06T04:20:03;98674.00;;;18.90
68127;BMP180;54931;52.098;21.006;2023-08-06T04:22:31;98672.20;;;18.94
68127;BMP180;54931;52.098;21.006;2023-08-06T04:24:58;98669.40;;;19.00
68127;BMP180;54931;52.098;21.006;2023-08-06T04:27:26;98663.20;;;19.00
68127;BMP180;54931;52.098;21.006;2023-08-06T04:29:54;98656.80;;;19.00
68127;BMP180;54931;52.098;21.006;2023-08-06T04:32:22;98651.40;;;19.10
68127;BMP180;54931;52.098;21.006;2023-08-06T04:34:49;98643.00;;;19.10
68127;BMP180;54931;52.098;21.006;2023-08-06T04:37:17;98640.00;;;19.20
68127;BMP180;54931;52.098;21.006;2023-08-06T04:39:45;98634.20;;;19.20
68127;BMP180;54931;52.098;21.006;2023-08-06T04:42:12;98632.00;;;19.24
68127;BMP180;54931;52.098;21.006;2023-08-06T04:44:40;98625.80;;;19.30
68127;BMP180;54931;52.098;21.006;2023-08-06T04:47:08;98623.60;;;19.38
68127;BMP180;54931;52.098;21.006;2023-08-06T04:49:36;98624.60;;;19.40
68127;BMP180;54931;52.098;21.006;2023-08-06T04:52:04;98628.60;;;19.50
68127;BMP180;54931;52.098;21.006;2023-08-06T04:54:32;98623.60;;;19.50
68127;BMP180;54931;52.098;21.006;2023-08-06T04:56:59;98617.80;;;19.50
68127;BMP180;54931;52.098;21.006;2023-08-06T04:59:28;98614.60;;;19.64
68127;BMP180;54931;52.098;21.006;2023-08-06T05:01:55;98619.20;;;19.80
68127;BMP180;54931;52.098;21.006;2023-08-06T05:04:23;98618.00;;;20.00
68127;BMP180;54931;52.098;21.006;2023-08-06T05:06:50;98614.60;;;20.20
68127;BMP180;54931;52.098;21.006;2023-08-06T05:09:17;98605.00;;;20.42
68127;BMP180;54931;52.098;21.006;2023-08-06T05:11:47;98600.00;;;20.70
68127;BMP180;54931;52.098;21.006;2023-08-06T05:14:14;98598.00;;;20.90
68127;BMP180;54931;52.098;21.006;2023-08-06T05:16:42;98590.80;;;21.00
68127;BMP180;54931;52.098;21.006;2023-08-06T05:19:09;98592.60;;;21.20
68127;BMP180;54931;52.098;21.006;2023-08-06T05:21:36;98591.80;;;21.40
68127;BMP180;54931;52.098;21.006;2023-08-06T05:24:04;98588.40;;;21.50
68127;BMP180;54931;52.098;21.006;2023-08-06T05:26:31;98585.40;;;21.70
68127;BMP180;54931;52.098;21.006;2023-08-06T05:28:59;98590.20;;;21.92
68127;BMP180;54931;52.098;21.006;2023-08-06T05:31:27;98579.20;;;22.10
68127;BMP180;54931;52.098;21.006;2023-08-06T05:33:56;98572.20;;;22.30
68127;BMP180;54931;52.098;21.006;2023-08-06T05:36:24;98569.20;;;22.66
68127;BMP180;54931;52.098;21.006;2023-08-06T05:38:51;98565.20;;;23.06
68127;BMP180;54931;52.098;21.006;2023-08-06T05:41:19;98556.00;;;23.20
68127;BMP180;54931;52.098;21.006;2023-08-06T05:43:46;98552.00;;;23.40
68127;BMP180;54931;52.098;21.006;2023-08-06T05:46:14;98547.40;;;23.70
68127;BMP180;54931;52.098;21.006;2023-08-06T05:48:41;98543.20;;;24.00
68127;BMP180;54931;52.098;21.006;2023-08-06T05:51:09;98536.60;;;24.20
68127;BMP180;54931;52.098;21.006;2023-08-06T05:53:39;98534.00;;;24.40
68127;BMP180;54931;52.098;21.006;2023-08-06T05:56:07;98533.40;;;24.48
68127;BMP180;54931;52.098;21.006;2023-08-06T05:58:34;98538.00;;;24.60
68127;BMP180;54931;52.098;21.006;2023-08-06T06:01:03;98540.20;;;24.70
68127;BMP180;54931;52.098;21.006;2023-08-06T06:03:30;98544.60;;;24.90
68127;BMP180;54931;52.098;21.006;2023-08-06T06:06:01;98548.20;;;25.00
68127;BMP180;54931;52.098;21.006;2023-08-06T06:08:29;98542.00;;;24.80
68127;BMP180;54931;52.098;21.006;2023-08-06T06:10:56;98536.00;;;24.80
68127;BMP180;54931;52.098;21.006;2023-08-06T06:13:24;98524.60;;;24.90
68127;BMP180;54931;52.098;21.006;2023-08-06T06:15:55;98516.00;;;25.00
68127;BMP180;54931;52.098;21.006;2023-08-06T06:18:23;98518.20;;;25.00
68127;BMP180;54931;52.098;21.006;2023-08-06T06:20:50;98517.20;;;24.66
68127;BMP180;54931;52.098;21.006;2023-08-06T06:23:18;98508.40;;;24.30
68127;BMP180;54931;52.098;21.006;2023-08-06T06:25:50;98507.00;;;24.10
68127;BMP180;54931;52.098;21.006;2023-08-06T06:28:20;98506.20;;;24.20
68127;BMP180;54931;52.098;21.006;2023-08-06T06:30:48;98501.80;;;24.20
68127;BMP180;54931;52.098;21.006;2023-08-06T06:33:15;98497.00;;;24.64
68127;BMP180;54931;52.098;21.006;2023-08-06T06:35:43;98499.20;;;25.16
68127;BMP180;54931;52.098;21.006;2023-08-06T06:38:10;98485.60;;;25.58
68127;BMP180;54931;52.098;21.006;2023-08-06T06:40:38;98486.00;;;25.82
68127;BMP180;54931;52.098;21.006;2023-08-06T06:43:06;98484.60;;;25.90
68127;BMP180;54931;52.098;21.006;2023-08-06T06:45:33;98483.00;;;26.10
68127;BMP180;54931;52.098;21.006;2023-08-06T06:48:01;98480.80;;;26.26
68127;BMP180;54931;52.098;21.006;2023-08-06T06:50:29;98481.20;;;26.40
68127;BMP180;54931;52.098;21.006;2023-08-06T06:52:57;98484.40;;;26.60
68127;BMP180;54931;52.098;21.006;2023-08-06T06:55:24;98486.40;;;26.70
68127;BMP180;54931;52.098;21.006;2023-08-06T06:57:52;98482.80;;;26.80
68127;BMP180;54931;52.098;21.006;2023-08-06T07:00:19;98485.20;;;26.80
68127;BMP180;54931;52.098;21.006;2023-08-06T07:02:47;98486.60;;;26.62
68127;BMP180;54931;52.098;21.006;2023-08-06T07:05:14;98489.20;;;26.58
68127;BMP180;54931;52.098;21.006;2023-08-06T07:07:42;98488.20;;;26.24
68127;BMP180;54931;52.098;21.006;2023-08-06T07:10:10;98489.20;;;26.36
68127;BMP180;54931;52.098;21.006;2023-08-06T07:12:37;98489.60;;;26.62
68127;BMP180;54931;52.098;21.006;2023-08-06T07:15:09;98492.60;;;26.80
68127;BMP180;54931;52.098;21.006;2023-08-06T07:17:37;98484.00;;;26.80
68127;BMP180;54931;52.098;21.006;2023-08-06T07:20:06;98487.20;;;26.92
68127;BMP180;54931;52.098;21.006;2023-08-06T07:22:33;98486.00;;;26.98
68127;BMP180;54931;52.098;21.006;2023-08-06T07:25:01;98486.00;;;26.90
68127;BMP180;54931;52.098;21.006;2023-08-06T07:27:30;98482.60;;;26.96
68127;BMP180;54931;52.098;21.006;2023-08-06T07:29:58;98482.80;;;27.20
68127;BMP180;54931;52.098;21.006;2023-08-06T07:32:26;98487.80;;;27.48
68127;BMP180;54931;52.098;21.006;2023-08-06T07:34:55;98485.60;;;27.60
68127;BMP180;54931;52.098;21.006;2023-08-06T07:37:27;98482.00;;;27.70
68127;BMP180;54931;52.098;21.006;2023-08-06T07:39:57;98487.60;;;27.46
68127;BMP180;54931;52.098;21.006;2023-08-06T07:42:25;98484.80;;;27.20
68127;BMP180;54931;52.098;21.006;2023-08-06T07:44:55;98478.60;;;27.10
68127;BMP180;54931;52.098;21.006;2023-08-06T07:47:23;98480.80;;;27.00
68127;BMP180;54931;52.098;21.006;2023-08-06T07:49:53;98484.80;;;26.90
68127;BMP180;54931;52.098;21.006;2023-08-06T07:52:22;98482.20;;;26.90
68127;BMP180;54931;52.098;21.006;2023-08-06T07:54:50;98480.60;;;26.90
68127;BMP180;54931;52.098;21.006;2023-08-06T07:57:19;98475.80;;;27.18
68127;BMP180;54931;52.098;21.006;2023-08-06T07:59:46;98479.00;;;27.58
68127;BMP180;54931;52.098;21.006;2023-08-06T08:02:14;98471.00;;;27.96
68127;BMP180;54931;52.098;21.006;2023-08-06T08:04:41;98469.00;;;28.26
68127;BMP180;54931;52.098;21.006;2023-08-06T08:07:09;98457.80;;;28.68
68127;BMP180;54931;52.098;21.006;2023-08-06T08:09:37;98457.20;;;29.00
68127;BMP180;54931;52.098;21.006;2023-08-06T08:12:06;98461.20;;;29.10
68127;BMP180;54931;52.098;21.006;2023-08-06T08:14:34;98456.40;;;29.20
68127;BMP180;54931;52.098;21.006;2023-08-06T08:17:04;98455.40;;;29.50
68127;BMP180;54931;52.098;21.006;2023-08-06T08:19:33;98454.20;;;29.84
68127;BMP180;54931;52.098;21.006;2023-08-06T08:22:01;98459.20;;;30.06
68127;BMP180;54931;52.098;21.006;2023-08-06T08:24:29;98458.40;;;30.10
68127;BMP180;54931;52.098;21.006;2023-08-06T08:26:58;98454.00;;;30.00
68127;BMP180;54931;52.098;21.006;2023-08-06T08:29:28;98454.40;;;30.10
68127;BMP180;54931;52.098;21.006;2023-08-06T08:31:56;98447.20;;;30.20
68127;BMP180;54931;52.098;21.006;2023-08-06T08:34:23;98452.80;;;30.26
68127;BMP180;54931;52.098;21.006;2023-08-06T08:36:51;98451.40;;;30.30
68127;BMP180;54931;52.098;21.006;2023-08-06T08:39:19;98454.20;;;30.30
68127;BMP180;54931;52.098;21.006;2023-08-06T08:41:48;98450.00;;;30.20
68127;BMP180;54931;52.098;21.006;2023-08-06T08:44:17;98451.80;;;30.20
68127;BMP180;54931;52.098;21.006;2023-08-06T08:46:47;98454.40;;;30.12
68127;BMP180;54931;52.098;21.006;2023-08-06T08:49:17;98450.00;;;30.30
68127;BMP180;54931;52.098;21.006;2023-08-06T08:51:48;98452.80;;;30.40
68127;BMP180;54931;52.098;21.006;2023-08-06T08:54:18;98444.40;;;30.52
68127;BMP180;54931;52.098;21.006;2023-08-06T08:56:47;98434.60;;;30.76
68127;BMP180;54931;52.098;21.006;2023-08-06T08:59:18;98430.00;;;30.80
68127;BMP180;54931;52.098;21.006;2023-08-06T09:01:48;98424.20;;;30.86
68127;BMP180;54931;52.098;21.006;2023-08-06T09:04:19;98424.20;;;30.70
68127;BMP180;54931;52.098;21.006;2023-08-06T09:06:52;98429.00;;;30.50
68127;BMP180;54931;52.098;21.006;2023-08-06T09:09:31;98417.00;;;30.50
68127;BMP180;54931;52.098;21.006;2023-08-06T09:12:03;98416.80;;;30.20
68127;BMP180;54931;52.098;21.006;2023-08-06T09:14:33;98413.80;;;30.42
68127;BMP180;54931;52.098;21.006;2023-08-06T09:17:01;98416.60;;;30.50
68127;BMP180;54931;52.098;21.006;2023-08-06T09:19:28;98408.80;;;30.40
68127;BMP180;54931;52.098;21.006;2023-08-06T09:21:57;98408.40;;;30.50
68127;BMP180;54931;52.098;21.006;2023-08-06T09:24:25;98399.80;;;30.64
68127;BMP180;54931;52.098;21.006;2023-08-06T09:26:56;98403.00;;;30.60
68127;BMP180;54931;52.098;21.006;2023-08-06T09:29:31;98407.00;;;30.60
68127;BMP180;54931;52.098;21.006;2023-08-06T09:32:00;98400.00;;;30.50
68127;BMP180;54931;52.098;21.006;2023-08-06T09:34:28;98405.00;;;30.30
68127;BMP180;54931;52.098;21.006;2023-08-06T09:36:56;98404.60;;;30.10
68127;BMP180;54931;52.098;21.006;2023-08-06T09:39:30;98404.00;;;29.90
68127;BMP180;54931;52.098;21.006;2023-08-06T09:42:00;98396.40;;;29.90
68127;BMP180;54931;52.098;21.006;2023-08-06T09:44:31;98397.40;;;29.98
68127;BMP180;54931;52.098;21.006;2023-08-06T09:47:02;98392.20;;;29.90
68127;BMP180;54931;52.098;21.006;2023-08-06T09:52:11;98390.80;;;29.90
68127;BMP180;54931;52.098;21.006;2023-08-06T09:54:39;98391.20;;;30.04
68127;BMP180;54931;52.098;21.006;2023-08-06T09:57:12;98380.40;;;30.34
68127;BMP180;54931;52.098;21.006;2023-08-06T09:59:42;98381.40;;;30.58
68127;BMP180;54931;52.098;21.006;2023-08-06T10:02:13;98376.40;;;30.52
68127;BMP180;54931;52.098;21.006;2023-08-06T10:04:44;98366.40;;;30.50
68127;BMP180;54931;52.098;21.006;2023-08-06T10:07:14;98364.80;;;30.60
68127;BMP180;54931;52.098;21.006;2023-08-06T10:09:42;98361.80;;;30.86
68127;BMP180;54931;52.098;21.006;2023-08-06T10:12:10;98361.20;;;31.10
68127;BMP180;54931;52.098;21.006;2023-08-06T10:14:40;98357.60;;;30.90
68127;BMP180;54931;52.098;21.006;2023-08-06T10:17:10;98356.80;;;31.10
68127;BMP180;54931;52.098;21.006;2023-08-06T10:19:38;98357.40;;;31.20
68127;BMP180;54931;52.098;21.006;2023-08-06T10:22:12;98351.80;;;31.20
68127;BMP180;54931;52.098;21.006;2023-08-06T10:24:53;98353.60;;;31.00
68127;BMP180;54931;52.098;21.006;2023-08-06T10:27:35;98356.00;;;30.70
68127;BMP180;54931;52.098;21.006;2023-08-06T10:30:29;98350.80;;;30.56
68127;BMP180;54931;52.098;21.006;2023-08-06T10:33:00;98338.80;;;30.54
68127;BMP180;54931;52.098;21.006;2023-08-06T10:35:47;98338.80;;;30.30
68127;BMP180;54931;52.098;21.006;2023-08-06T10:38:25;98337.20;;;30.10
68127;BMP180;54931;52.098;21.006;2023-08-06T10:43:30;98336.60;;;29.60
68127;BMP180;54931;52.098;21.006;2023-08-06T10:46:10;98336.40;;;29.40
68127;BMP180;54931;52.098;21.006;2023-08-06T10:48:40;98333.20;;;29.20
68127;BMP180;54931;52.098;21.006;2023-08-06T10:51:10;98334.80;;;29.00
68127;BMP180;54931;52.098;21.006;2023-08-06T10:53:43;98328.20;;;28.90
68127;BMP180;54931;52.098;21.006;2023-08-06T10:56:22;98326.20;;;29.00
68127;BMP180;54931;52.098;21.006;2023-08-06T10:58:53;98324.20;;;28.90
68127;BMP180;54931;52.098;21.006;2023-08-06T11:01:23;98325.20;;;28.90
68127;BMP180;54931;52.098;21.006;2023-08-06T11:03:51;98320.40;;;28.80
68127;BMP180;54931;52.098;21.006;2023-08-06T11:06:22;98314.80;;;28.70
68127;BMP180;54931;52.098;21.006;2023-08-06T11:08:54;98308.20;;;28.70
68127;BMP180;54931;52.098;21.006;2023-08-06T11:11:23;98303.40;;;28.90
68127;BMP180;54931;52.098;21.006;2023-08-06T11:13:52;98306.00;;;29.30
68127;BMP180;54931;52.098;21.006;2023-08-06T11:16:23;98308.00;;;29.40
68127;BMP180;54931;52.098;21.006;2023-08-06T11:18:52;98310.80;;;29.40
68127;BMP180;54931;52.098;21.006;2023-08-06T11:21:22;98307.00;;;29.26
68127;BMP180;54931;52.098;21.006;2023-08-06T11:23:52;98293.60;;;29.20
68127;BMP180;54931;52.098;21.006;2023-08-06T11:26:21;98289.20;;;29.50
68127;BMP180;54931;52.098;21.006;2023-08-06T11:28:51;98281.20;;;29.78
68127;BMP180;54931;52.098;21.006;2023-08-06T11:31:23;98268.60;;;29.90
68127;BMP180;54931;52.098;21.006;2023-08-06T11:33:54;98267.80;;;30.08
68127;BMP180;54931;52.098;21.006;2023-08-06T11:36:40;98260.80;;;30.10
68127;BMP180;54931;52.098;21.006;2023-08-06T11:39:09;98251.20;;;30.20
68127;BMP180;54931;52.098;21.006;2023-08-06T11:41:37;98255.80;;;30.30
68127;BMP180;54931;52.098;21.006;2023-08-06T11:44:11;98250.00;;;30.48
68127;BMP180;54931;52.098;21.006;2023-08-06T11:46:56;98251.60;;;30.38
68127;BMP180;54931;52.098;21.006;2023-08-06T11:49:48;98245.60;;;30.20
68127;BMP180;54931;52.098;21.006;2023-08-06T11:52:23;98253.00;;;30.20
68127;BMP180;54931;52.098;21.006;2023-08-06T11:57:38;98229.20;;;30.50
68127;BMP180;54931;52.098;21.006;2023-08-06T12:00:12;98224.40;;;30.60
68127;BMP180;54931;52.098;21.006;2023-08-06T12:02:42;98218.60;;;30.58
68127;BMP180;54931;52.098;21.006;2023-08-06T12:07:43;98223.20;;;30.30
68127;BMP180;54931;52.098;21.006;2023-08-06T12:10:13;98225.20;;;30.10
68127;BMP180;54931;52.098;21.006;2023-08-06T12:12:41;98224.60;;;30.00
68127;BMP180;54931;52.098;21.006;2023-08-06T12:15:10;98225.60;;;29.96
68127;BMP180;54931;52.098;21.006;2023-08-06T12:17:38;98226.60;;;29.80
68127;BMP180;54931;52.098;21.006;2023-08-06T12:20:07;98224.60;;;29.70
68127;BMP180;54931;52.098;21.006;2023-08-06T12:22:36;98225.60;;;29.60
68127;BMP180;54931;52.098;21.006;2023-08-06T12:25:10;98229.80;;;29.40
68127;BMP180;54931;52.098;21.006;2023-08-06T12:27:42;98223.60;;;29.28
68127;BMP180;54931;52.098;21.006;2023-08-06T12:30:12;98219.00;;;29.10
68127;BMP180;54931;52.098;21.006;2023-08-06T12:32:40;98234.40;;;28.90
68127;BMP180;54931;52.098;21.006;2023-08-06T12:35:08;98227.60;;;28.74
68127;BMP180;54931;52.098;21.006;2023-08-06T12:37:37;98233.60;;;28.60
68127;BMP180;54931;52.098;21.006;2023-08-06T12:40:06;98241.40;;;28.50
68127;BMP180;54931;52.098;21.006;2023-08-06T12:42:34;98230.20;;;28.32
68127;BMP180;54931;52.098;21.006;2023-08-06T12:45:03;98225.20;;;28.20
68127;BMP180;54931;52.098;21.006;2023-08-06T12:47:31;98229.20;;;28.20
68127;BMP180;54931;52.098;21.006;2023-08-06T12:49:58;98228.40;;;28.10
68127;BMP180;54931;52.098;21.006;2023-08-06T12:52:26;98242.60;;;28.10
68127;BMP180;54931;52.098;21.006;2023-08-06T12:54:53;98243.20;;;28.10
68127;BMP180;54931;52.098;21.006;2023-08-06T12:57:21;98247.20;;;28.10
68127;BMP180;54931;52.098;21.006;2023-08-06T12:59:49;98254.00;;;28.12
68127;BMP180;54931;52.098;21.006;2023-08-06T13:02:17;98245.20;;;28.20
68127;BMP180;54931;52.098;21.006;2023-08-06T13:04:46;98253.00;;;28.20
68127;BMP180;54931;52.098;21.006;2023-08-06T13:07:21;98258.80;;;28.20
68127;BMP180;54931;52.098;21.006;2023-08-06T13:09:50;98261.00;;;28.30
68127;BMP180;54931;52.098;21.006;2023-08-06T13:12:20;98252.80;;;28.20
68127;BMP180;54931;52.098;21.006;2023-08-06T13:14:52;98246.60;;;28.04
68127;BMP180;54931;52.098;21.006;2023-08-06T13:17:21;98252.40;;;27.90
68127;BMP180;54931;52.098;21.006;2023-08-06T13:19:49;98252.80;;;27.90
68127;BMP180;54931;52.098;21.006;2023-08-06T13:22:19;98248.60;;;27.80
68127;BMP180;54931;52.098;21.006;2023-08-06T13:24:49;98253.40;;;27.80
68127;BMP180;54931;52.098;21.006;2023-08-06T13:27:18;98248.40;;;27.78
68127;BMP180;54931;52.098;21.006;2023-08-06T13:29:50;98242.80;;;27.80
68127;BMP180;54931;52.098;21.006;2023-08-06T13:32:20;98240.00;;;27.80
68127;BMP180;54931;52.098;21.006;2023-08-06T13:34:49;98238.40;;;27.86
68127;BMP180;54931;52.098;21.006;2023-08-06T13:37:17;98232.00;;;27.90
68127;BMP180;54931;52.098;21.006;2023-08-06T13:39:44;98234.80;;;27.86
68127;BMP180;54931;52.098;21.006;2023-08-06T13:42:13;98234.20;;;27.90
68127;BMP180;54931;52.098;21.006;2023-08-06T13:44:44;98226.00;;;28.10
68127;BMP180;54931;52.098;21.006;2023-08-06T13:47:14;98228.20;;;28.20
68127;BMP180;54931;52.098;21.006;2023-08-06T13:49:42;98228.00;;;28.24
68127;BMP180;54931;52.098;21.006;2023-08-06T13:52:17;98223.60;;;28.20
68127;BMP180;54931;52.098;21.006;2023-08-06T13:54:45;98235.60;;;28.30
68127;BMP180;54931;52.098;21.006;2023-08-06T13:57:13;98228.40;;;28.40
68127;BMP180;54931;52.098;21.006;2023-08-06T13:59:41;98233.80;;;28.40
68127;BMP180;54931;52.098;21.006;2023-08-06T14:02:11;98232.40;;;28.50
68127;BMP180;54931;52.098;21.006;2023-08-06T14:04:39;98244.20;;;28.60
68127;BMP180;54931;52.098;21.006;2023-08-06T14:07:08;98246.40;;;28.60
68127;BMP180;54931;52.098;21.006;2023-08-06T14:09:37;98250.80;;;28.60
68127;BMP180;54931;52.098;21.006;2023-08-06T14:12:06;98254.80;;;28.50
68127;BMP180;54931;52.098;21.006;2023-08-06T14:14:34;98262.80;;;28.40
68127;BMP180;54931;52.098;21.006;2023-08-06T14:17:02;98267.40;;;28.30
68127;BMP180;54931;52.098;21.006;2023-08-06T14:19:31;98262.40;;;28.20
68127;BMP180;54931;52.098;21.006;2023-08-06T14:21:59;98275.20;;;28.08